createdAt,value
2018-06-20T00:00:36.818Z,6.77
2018-06-20T00:03:05.325Z,7.67
2018-06-20T00:05:33.846Z,7.43
2018-06-20T00:08:02.354Z,7.50
2018-06-20T00:10:30.851Z,8.00
2018-06-20T00:12:59.394Z,7.70
2018-06-20T00:15:27.924Z,6.80
2018-06-20T00:17:56.396Z,7.40
2018-06-20T00:20:24.909Z,7.80
2018-06-20T00:22:53.418Z,7.90
2018-06-20T00:25:21.960Z,8.10
2018-06-20T00:27:50.503Z,7.10
2018-06-20T00:30:19.032Z,7.27
2018-06-20T00:32:47.567Z,8.33
2018-06-20T00:35:16.139Z,7.00
2018-06-20T00:37:44.623Z,6.90
2018-06-20T00:40:13.123Z,7.50
2018-06-20T00:42:41.774Z,8.17
2018-06-20T00:45:10.257Z,7.20
2018-06-20T00:47:38.827Z,7.83
2018-06-20T00:50:07.329Z,7.80
2018-06-20T00:52:35.877Z,7.50
2018-06-20T00:55:04.361Z,6.17
2018-06-20T00:57:32.865Z,6.80
2018-06-20T01:00:01.407Z,7.10
2018-06-20T01:02:29.888Z,7.20
2018-06-20T01:04:58.450Z,7.20
2018-06-20T01:07:26.989Z,6.47
2018-06-20T01:09:55.694Z,6.93
2018-06-20T01:12:24.226Z,7.30
2018-06-20T01:14:52.724Z,7.30
2018-06-20T01:17:21.233Z,7.07
2018-06-20T01:19:49.754Z,7.67
2018-06-20T01:22:18.262Z,7.67
2018-06-20T01:24:46.805Z,6.50
2018-06-20T01:27:15.327Z,7.50
2018-06-20T01:29:43.845Z,7.90
2018-06-20T01:32:12.345Z,7.10
2018-06-20T01:34:40.872Z,7.37
2018-06-20T01:37:09.406Z,7.47
2018-06-20T01:39:38.090Z,7.40
2018-06-20T01:42:06.885Z,6.47
2018-06-20T01:44:35.392Z,7.50
2018-06-20T01:47:03.888Z,7.10
2018-06-20T01:49:32.475Z,8.07
2018-06-20T01:52:00.974Z,7.97
2018-06-20T01:54:29.478Z,8.07
2018-06-20T01:56:58.031Z,8.57
2018-06-20T01:59:26.646Z,7.20
2018-06-20T02:01:55.167Z,7.50
2018-06-20T02:04:23.694Z,7.50
2018-06-20T02:06:52.253Z,9.33
2018-06-20T02:09:20.747Z,8.33
2018-06-20T02:11:49.258Z,7.90
2018-06-20T02:14:17.750Z,8.17
2018-06-20T02:16:46.268Z,9.50
2018-06-20T02:19:14.810Z,7.63
2018-06-20T02:21:43.388Z,7.93
2018-06-20T02:24:11.895Z,7.63
2018-06-20T02:26:40.439Z,7.70
2018-06-20T02:29:09.068Z,7.60
2018-06-20T02:31:37.585Z,8.30
2018-06-20T02:34:06.114Z,8.07
2018-06-20T02:36:34.654Z,7.63
2018-06-20T02:39:06.129Z,7.43
2018-06-20T02:41:34.994Z,8.90
2018-06-20T02:44:03.593Z,7.60
2018-06-20T02:46:32.393Z,7.80
2018-06-20T02:49:00.967Z,7.97
2018-06-20T02:51:29.458Z,7.07
2018-06-20T02:53:57.987Z,7.77
2018-06-20T02:56:26.481Z,6.87
2018-06-20T02:58:54.961Z,6.70
2018-06-20T03:01:23.522Z,7.00
2018-06-20T03:03:52.034Z,7.33
2018-06-20T03:06:20.531Z,8.03
2018-06-20T03:08:54.566Z,7.40
2018-06-20T03:11:23.070Z,8.00
2018-06-20T03:13:51.614Z,7.30
2018-06-20T03:16:20.138Z,8.17
2018-06-20T03:18:48.658Z,7.23
2018-06-20T03:21:17.169Z,8.00
2018-06-20T03:23:45.666Z,8.37
2018-06-20T03:26:14.222Z,8.10
2018-06-20T03:28:43.041Z,8.53
2018-06-20T03:31:11.588Z,8.40
2018-06-20T03:33:40.130Z,8.20
2018-06-20T03:36:08.693Z,8.67
2018-06-20T03:38:37.218Z,8.00
2018-06-20T03:41:05.753Z,14.10
2018-06-20T03:43:34.317Z,7.90
2018-06-20T03:46:02.967Z,7.53
2018-06-20T03:48:31.607Z,8.37
2018-06-20T03:51:00.130Z,8.87
2018-06-20T03:53:28.622Z,10.13
2018-06-20T03:55:57.133Z,8.40
2018-06-20T03:58:25.630Z,9.57
2018-06-20T04:00:54.194Z,8.63
2018-06-20T04:03:22.730Z,8.80
2018-06-20T04:05:51.270Z,8.63
2018-06-20T04:08:19.777Z,8.57
2018-06-20T04:10:48.289Z,9.97
2018-06-20T04:13:16.827Z,8.10
2018-06-20T04:15:45.365Z,7.77
2018-06-20T04:18:14.012Z,8.70
2018-06-20T04:20:42.530Z,8.63
2018-06-20T04:23:11.030Z,9.33
2018-06-20T04:25:39.555Z,9.57
2018-06-20T04:28:08.114Z,9.50
2018-06-20T04:30:36.655Z,8.30
2018-06-20T04:33:05.183Z,8.00
2018-06-20T04:35:33.725Z,7.77
2018-06-20T04:38:02.257Z,8.10
2018-06-20T04:40:30.822Z,7.73
2018-06-20T04:42:59.338Z,8.37
2018-06-20T04:45:27.846Z,7.93
2018-06-20T04:47:56.350Z,8.33
2018-06-20T04:50:24.909Z,7.67
2018-06-20T04:52:53.479Z,7.43
2018-06-20T04:55:22.047Z,8.17
2018-06-20T04:57:50.583Z,7.93
2018-06-20T05:00:19.132Z,7.40
2018-06-20T05:02:47.650Z,7.97
2018-06-20T05:05:16.175Z,7.50
2018-06-20T05:07:44.710Z,8.10
2018-06-20T05:10:13.286Z,10.07
2018-06-20T05:12:41.788Z,8.80
2018-06-20T05:15:10.322Z,8.33
2018-06-20T05:17:38.838Z,8.27
2018-06-20T05:20:07.423Z,8.30
2018-06-20T05:22:35.964Z,8.43
2018-06-20T05:25:04.583Z,9.33
2018-06-20T05:27:33.988Z,8.03
2018-06-20T05:30:03.127Z,8.70
2018-06-20T05:32:31.670Z,8.23
2018-06-20T05:35:00.238Z,9.00
2018-06-20T05:37:29.611Z,7.60
2018-06-20T05:39:58.096Z,7.37
2018-06-20T05:42:26.624Z,8.07
2018-06-20T05:44:55.093Z,8.07
2018-06-20T05:47:23.606Z,9.73
2018-06-20T05:49:52.230Z,7.30
2018-06-20T05:52:20.731Z,7.70
2018-06-20T05:54:49.265Z,7.40
2018-06-20T05:57:17.786Z,7.60
2018-06-20T05:59:46.469Z,7.93
2018-06-20T06:02:15.194Z,8.93
2018-06-20T06:04:43.754Z,8.17
2018-06-20T06:07:12.957Z,6.73
2018-06-20T06:09:41.469Z,7.60
2018-06-20T06:12:09.981Z,6.90
2018-06-20T06:14:38.468Z,7.13
2018-06-20T06:17:07.062Z,7.30
2018-06-20T06:19:35.670Z,7.17
2018-06-20T06:22:04.193Z,6.87
2018-06-20T06:24:33.863Z,7.03
2018-06-20T06:27:02.065Z,8.13
2018-06-20T06:29:31.214Z,7.10
2018-06-20T06:31:59.744Z,7.13
2018-06-20T06:34:28.275Z,8.07
2018-06-20T06:36:56.775Z,7.03
2018-06-20T06:39:25.650Z,7.47
2018-06-20T06:41:54.198Z,7.10
2018-06-20T06:44:22.711Z,9.70
2018-06-20T06:46:51.222Z,6.50
2018-06-20T06:49:19.808Z,6.97
2018-06-20T06:51:48.290Z,6.90
2018-06-20T06:54:16.807Z,7.57
2018-06-20T06:56:45.367Z,6.97
2018-06-20T06:59:13.869Z,6.50
2018-06-20T07:01:42.387Z,6.97
2018-06-20T07:04:10.933Z,6.93
2018-06-20T07:06:39.462Z,6.80
2018-06-20T07:09:08.718Z,7.07
2018-06-20T07:11:37.257Z,7.93
2018-06-20T07:14:05.754Z,6.90
2018-06-20T07:16:34.304Z,6.93
2018-06-20T07:19:02.823Z,6.13
2018-06-20T07:21:31.350Z,7.97
2018-06-20T07:24:00.019Z,6.10
2018-06-20T07:26:28.534Z,6.50
2018-06-20T07:28:57.098Z,6.17
2018-06-20T07:31:25.634Z,7.00
2018-06-20T07:33:54.157Z,6.87
2018-06-20T07:36:22.745Z,6.60
2018-06-20T07:38:51.235Z,6.33
2018-06-20T07:41:19.737Z,6.60
2018-06-20T07:43:48.689Z,6.20
2018-06-20T07:46:17.245Z,6.83
2018-06-20T07:48:45.818Z,8.30
2018-06-20T07:51:14.346Z,6.30
2018-06-20T07:53:42.849Z,6.90
2018-06-20T07:56:11.354Z,7.10
2018-06-20T07:58:44.990Z,6.67
2018-06-20T08:03:31.313Z,6.70
2018-06-20T08:06:05.090Z,6.80
2018-06-20T08:08:38.725Z,5.87
2018-06-20T08:11:12.369Z,6.03
2018-06-20T08:13:46.067Z,6.47
2018-06-20T08:16:19.854Z,5.80
2018-06-20T08:18:53.517Z,5.97
2018-06-20T08:21:22.039Z,5.57
2018-06-20T08:23:50.550Z,5.70
2018-06-20T08:26:19.062Z,5.67
2018-06-20T08:28:47.866Z,5.40
2018-06-20T08:31:16.375Z,5.63
2018-06-20T08:33:44.887Z,4.77
2018-06-20T08:36:13.410Z,5.87
2018-06-20T08:38:41.915Z,5.50
2018-06-20T08:41:10.453Z,6.20
2018-06-20T08:43:38.919Z,5.63
2018-06-20T08:46:07.411Z,5.50
2018-06-20T08:48:35.960Z,5.47
2018-06-20T08:51:05.487Z,4.73
2018-06-20T08:53:34.017Z,8.67
2018-06-20T08:56:02.594Z,6.37
2018-06-20T08:58:31.120Z,5.10
2018-06-20T09:01:02.339Z,5.10
2018-06-20T09:03:30.910Z,5.40
2018-06-20T09:06:04.795Z,5.10
2018-06-20T09:08:38.474Z,5.00
2018-06-20T09:11:12.134Z,5.40
2018-06-20T09:13:45.606Z,5.47
2018-06-20T09:16:19.331Z,5.53
2018-06-20T09:18:53.074Z,5.30
2018-06-20T09:21:21.667Z,5.60
2018-06-20T09:23:50.173Z,4.70
2018-06-20T09:26:18.698Z,4.70
2018-06-20T09:28:47.250Z,4.87
2018-06-20T09:31:15.837Z,4.30
2018-06-20T09:33:44.408Z,4.57
2018-06-20T09:36:12.959Z,4.37
2018-06-20T09:38:41.606Z,4.80
2018-06-20T09:41:10.067Z,5.70
2018-06-20T09:43:39.148Z,5.43
2018-06-20T09:46:07.716Z,4.30
2018-06-20T09:48:36.316Z,4.07
2018-06-20T09:51:05.792Z,3.80
2018-06-20T09:53:34.286Z,6.10
2018-06-20T09:56:02.809Z,4.20
2018-06-20T09:58:31.349Z,4.77
2018-06-20T10:01:07.072Z,4.33
2018-06-20T10:03:40.849Z,4.17
2018-06-20T10:06:14.726Z,4.23
2018-06-20T10:08:48.437Z,4.30
2018-06-20T10:11:22.064Z,4.93
2018-06-20T10:13:53.159Z,5.40
2018-06-20T10:16:21.710Z,4.70
2018-06-20T10:18:50.217Z,4.23
2018-06-20T10:21:18.885Z,4.03
2018-06-20T10:23:47.286Z,4.20
2018-06-20T10:26:15.790Z,4.10
2018-06-20T10:28:44.336Z,4.30
2018-06-20T10:31:12.846Z,5.20
2018-06-20T10:33:41.352Z,4.37
2018-06-20T10:36:10.547Z,4.57
2018-06-20T10:38:39.665Z,4.37
2018-06-20T10:41:08.167Z,4.77
2018-06-20T10:43:36.683Z,4.30
2018-06-20T10:46:10.405Z,4.40
2018-06-20T10:48:38.892Z,3.90
2018-06-20T10:51:07.406Z,3.90
2018-06-20T10:53:35.974Z,3.93
2018-06-20T10:56:04.740Z,3.63
2018-06-20T10:58:38.489Z,3.53
2018-06-20T11:01:12.314Z,3.83
2018-06-20T11:03:45.703Z,5.80
2018-06-20T11:06:19.468Z,3.73
2018-06-20T11:08:53.262Z,3.77
2018-06-20T11:11:26.838Z,4.03
2018-06-20T11:13:55.424Z,3.83
2018-06-20T11:16:23.929Z,3.50
2018-06-20T11:18:54.345Z,4.10
2018-06-20T11:21:22.872Z,4.03
2018-06-20T11:23:51.373Z,3.87
2018-06-20T11:26:19.586Z,3.90
2018-06-20T11:28:48.234Z,4.87
2018-06-20T11:31:17.730Z,4.30
2018-06-20T11:33:46.278Z,4.20
2018-06-20T11:36:14.795Z,3.50
2018-06-20T11:38:43.296Z,3.57
2018-06-20T11:41:11.832Z,5.93
2018-06-20T11:43:40.346Z,4.20
2018-06-20T11:46:14.194Z,3.73
2018-06-20T11:48:44.242Z,3.87
2018-06-20T11:51:12.752Z,3.57
2018-06-20T11:53:41.283Z,4.13
2018-06-20T11:56:09.764Z,4.37
2018-06-20T11:58:44.401Z,3.93
2018-06-20T12:01:18.454Z,4.23
2018-06-20T12:03:53.511Z,3.60
2018-06-20T12:06:27.423Z,4.00
2018-06-20T12:09:01.158Z,3.40
2018-06-20T12:11:34.868Z,4.13
2018-06-20T12:14:09.355Z,4.33
2018-06-20T12:16:38.552Z,3.73
2018-06-20T12:19:12.436Z,3.40
2018-06-20T12:21:46.346Z,3.77
2018-06-20T12:24:20.167Z,3.43
2018-06-20T12:26:54.178Z,4.10
2018-06-20T12:29:27.949Z,3.33
2018-06-20T12:32:01.599Z,4.00
2018-06-20T12:34:35.394Z,3.50
2018-06-20T12:37:09.289Z,3.70
2018-06-20T12:39:37.048Z,4.03
2018-06-20T12:42:10.890Z,4.00
2018-06-20T12:44:44.658Z,3.70
2018-06-20T12:47:17.946Z,4.03
2018-06-20T12:49:50.139Z,5.87
2018-06-20T12:52:18.696Z,3.93
2018-06-20T12:54:47.249Z,4.10
2018-06-20T12:57:15.792Z,3.73
2018-06-20T12:59:44.897Z,3.50
2018-06-20T13:02:13.450Z,3.60
2018-06-20T13:04:41.956Z,4.33
2018-06-20T13:07:10.598Z,5.17
2018-06-20T13:09:39.122Z,4.13
2018-06-20T13:12:07.274Z,4.50
2018-06-20T13:14:35.817Z,3.37
2018-06-20T13:17:04.361Z,3.63
2018-06-20T13:19:32.846Z,4.10
2018-06-20T13:22:01.405Z,3.37
2018-06-20T13:24:29.914Z,3.70
2018-06-20T13:26:58.427Z,3.40
2018-06-20T13:29:29.150Z,4.50
2018-06-20T13:32:03.775Z,3.83
2018-06-20T13:34:37.762Z,3.80
2018-06-20T13:37:11.615Z,3.60
2018-06-20T13:39:45.476Z,4.57
2018-06-20T13:42:19.159Z,3.70
2018-06-20T13:44:47.829Z,3.43
2018-06-20T13:47:23.209Z,3.93
2018-06-20T13:49:56.120Z,3.70
2018-06-20T13:52:30.097Z,3.93
2018-06-20T13:54:59.432Z,3.90
2018-06-20T13:57:28.396Z,3.57
2018-06-20T13:59:58.081Z,4.10
2018-06-20T14:02:27.097Z,5.97
2018-06-20T14:04:56.107Z,3.70
2018-06-20T14:07:24.872Z,3.90
2018-06-20T14:09:53.783Z,3.97
2018-06-20T14:12:22.621Z,5.23
2018-06-20T14:14:52.093Z,4.23
2018-06-20T14:17:20.973Z,3.73
2018-06-20T14:19:55.044Z,3.90
2018-06-20T14:22:26.261Z,3.73
2018-06-20T14:24:54.839Z,3.77
2018-06-20T14:27:25.102Z,3.37
2018-06-20T14:29:53.835Z,3.87
2018-06-20T14:32:27.554Z,3.80
2018-06-20T14:35:01.296Z,4.00
2018-06-20T14:37:35.042Z,3.67
2018-06-20T14:40:08.733Z,3.60
2018-06-20T14:42:42.350Z,8.10
2018-06-20T14:45:16.129Z,3.97
2018-06-20T14:47:44.301Z,4.33
2018-06-20T14:50:12.924Z,3.40
2018-06-20T14:52:41.959Z,3.63
2018-06-20T14:55:10.710Z,5.93
2018-06-20T14:57:39.237Z,3.80
2018-06-20T15:00:09.470Z,3.87
2018-06-20T15:02:37.942Z,3.80
2018-06-20T15:05:06.683Z,3.83
2018-06-20T15:07:35.174Z,4.27
2018-06-20T15:10:08.324Z,3.83
2018-06-20T15:12:36.836Z,5.23
2018-06-20T15:15:05.409Z,4.30
2018-06-20T15:17:33.909Z,3.77
2018-06-20T15:20:02.443Z,4.00
2018-06-20T15:22:36.158Z,4.10
2018-06-20T15:25:04.654Z,3.53
2018-06-20T15:27:38.296Z,7.03
2018-06-20T15:30:11.994Z,4.70
2018-06-20T15:32:45.881Z,4.10
2018-06-20T15:35:19.805Z,4.30
2018-06-20T15:37:54.690Z,4.23
2018-06-20T15:40:24.712Z,2.60
2018-06-20T15:42:53.337Z,6.70
2018-06-20T15:45:21.848Z,3.87
2018-06-20T15:47:50.389Z,3.40
2018-06-20T15:50:18.894Z,3.70
2018-06-20T15:52:47.376Z,3.77
2018-06-20T15:55:15.865Z,3.33
2018-06-20T15:57:44.508Z,3.47
2018-06-20T16:00:13.008Z,3.67
2018-06-20T16:02:41.503Z,3.93
2018-06-20T16:05:10.011Z,3.30
2018-06-20T16:07:38.168Z,4.00
2018-06-20T16:10:09.831Z,3.80
2018-06-20T16:12:38.348Z,4.17
2018-06-20T16:15:06.829Z,3.70
2018-06-20T16:17:35.308Z,4.57
2018-06-20T16:22:10.827Z,3.50
2018-06-20T16:24:44.513Z,5.13
2018-06-20T16:27:18.251Z,4.60
2018-06-20T16:29:51.882Z,4.10
2018-06-20T16:32:20.394Z,4.33
2018-06-20T16:34:48.925Z,4.70
2018-06-20T16:37:17.470Z,4.77
2018-06-20T16:39:46.182Z,4.20
2018-06-20T16:42:15.243Z,4.10
2018-06-20T16:44:43.789Z,4.00
2018-06-20T16:47:12.293Z,3.87
2018-06-20T16:50:43.863Z,4.20
2018-06-20T16:53:12.343Z,3.70
2018-06-20T16:55:40.912Z,3.40
2018-06-20T16:58:18.543Z,4.57
2018-06-20T17:01:04.671Z,4.60
2018-06-20T17:03:33.248Z,4.33
2018-06-20T17:06:01.802Z,5.13
2018-06-20T17:08:30.493Z,3.53
2018-06-20T17:10:59.103Z,3.63
2018-06-20T17:13:32.964Z,3.90
2018-06-20T17:18:13.169Z,4.60
2018-06-20T17:20:47.451Z,3.97
2018-06-20T17:23:21.370Z,3.80
2018-06-20T17:25:49.873Z,3.87
2018-06-20T17:28:18.362Z,4.43
2018-06-20T17:30:47.537Z,4.80
2018-06-20T17:33:16.730Z,4.87
2018-06-20T17:35:45.214Z,4.40
2018-06-20T17:38:13.755Z,4.53
2018-06-20T17:40:42.233Z,4.60
2018-06-20T17:43:10.727Z,5.23
2018-06-20T17:45:39.239Z,4.03
2018-06-20T17:48:07.898Z,4.87
2018-06-20T17:50:36.573Z,4.77
2018-06-20T17:53:06.880Z,4.93
2018-06-20T17:55:35.572Z,6.90
2018-06-20T17:58:05.101Z,4.30
2018-06-20T18:00:37.909Z,4.70
2018-06-20T18:03:07.185Z,4.90
2018-06-20T18:05:40.887Z,4.87
2018-06-20T18:08:15.054Z,4.53
2018-06-20T18:10:49.852Z,4.53
2018-06-20T18:13:18.421Z,4.57
2018-06-20T18:15:52.144Z,5.63
2018-06-20T18:18:20.782Z,4.30
2018-06-20T18:20:49.360Z,5.80
2018-06-20T18:23:17.866Z,4.63
2018-06-20T18:25:46.417Z,4.37
2018-06-20T18:28:16.483Z,4.83
2018-06-20T18:30:45.918Z,4.60
2018-06-20T18:33:14.425Z,4.43
2018-06-20T18:35:43.096Z,4.90
2018-06-20T18:38:13.145Z,5.23
2018-06-20T18:40:41.651Z,4.77
2018-06-20T18:43:10.303Z,5.87
2018-06-20T18:45:38.877Z,5.40
2018-06-20T18:48:12.495Z,4.70
2018-06-20T18:50:41.082Z,4.40
2018-06-20T18:53:09.683Z,4.90
2018-06-20T18:55:38.230Z,5.53
2018-06-20T18:58:12.225Z,6.00
2018-06-20T19:00:45.903Z,6.03
2018-06-20T19:03:19.698Z,5.03
2018-06-20T19:05:53.763Z,7.70
2018-06-20T19:08:27.583Z,6.17
2018-06-20T19:10:56.081Z,5.60
2018-06-20T19:13:24.694Z,7.27
2018-06-20T19:15:53.152Z,7.60
2018-06-20T19:18:22.646Z,5.77
2018-06-20T19:20:51.162Z,6.80
2018-06-20T19:23:19.709Z,5.57
2018-06-20T19:25:48.280Z,5.33
2018-06-20T19:28:17.571Z,5.83
2018-06-20T19:30:47.680Z,6.17
2018-06-20T19:33:16.235Z,5.77
2018-06-20T19:35:44.715Z,5.60
2018-06-20T19:38:20.330Z,8.93
2018-06-20T19:40:48.854Z,6.17
2018-06-20T19:43:18.081Z,7.30
2018-06-20T19:45:47.808Z,5.87
2018-06-20T19:48:16.323Z,5.60
2018-06-20T19:50:44.836Z,5.17
2018-06-20T19:53:13.354Z,5.90
2018-06-20T19:55:41.974Z,5.80
2018-06-20T19:58:10.452Z,5.33
2018-06-20T20:00:39.876Z,5.10
2018-06-20T20:03:08.634Z,5.50
2018-06-20T20:05:37.220Z,5.23
2018-06-20T20:08:05.741Z,5.30
2018-06-20T20:10:34.239Z,5.33
2018-06-20T20:13:02.724Z,6.10
2018-06-20T20:15:31.255Z,10.50
2018-06-20T20:17:59.800Z,11.10
2018-06-20T20:20:28.365Z,5.30
2018-06-20T20:22:56.850Z,5.67
2018-06-20T20:25:25.344Z,6.10
2018-06-20T20:27:53.847Z,4.97
2018-06-20T20:30:22.366Z,5.07
2018-06-20T20:32:50.903Z,6.17
2018-06-20T20:35:22.366Z,6.43
2018-06-20T20:37:50.871Z,5.70
2018-06-20T20:40:19.372Z,16.53
2018-06-20T20:42:47.910Z,6.17
2018-06-20T20:45:16.435Z,5.00
2018-06-20T20:47:44.964Z,7.80
2018-06-20T20:50:13.487Z,5.60
2018-06-20T20:52:42.045Z,5.07
2018-06-20T20:55:10.555Z,5.40
2018-06-20T20:57:39.096Z,5.53
2018-06-20T21:00:08.215Z,6.03
2018-06-20T21:02:36.756Z,5.97
2018-06-20T21:05:05.566Z,5.63
2018-06-20T21:07:34.137Z,5.87
2018-06-20T21:10:02.615Z,6.13
2018-06-20T21:12:31.111Z,6.30
2018-06-20T21:14:59.617Z,5.83
2018-06-20T21:17:28.115Z,6.03
2018-06-20T21:19:56.786Z,6.00
2018-06-20T21:22:25.266Z,6.07
2018-06-20T21:24:53.728Z,5.90
2018-06-20T21:27:22.267Z,6.30
2018-06-20T21:29:50.782Z,6.63
2018-06-20T21:32:20.321Z,5.70
2018-06-20T21:34:48.850Z,5.40
2018-06-20T21:37:17.354Z,6.33
2018-06-20T21:39:45.935Z,5.87
2018-06-20T21:42:14.474Z,6.33
2018-06-20T21:44:46.160Z,6.33
2018-06-20T21:47:14.684Z,5.63
2018-06-20T21:49:43.161Z,5.43
2018-06-20T21:52:11.654Z,5.57
2018-06-20T21:54:40.215Z,7.20
2018-06-20T21:57:08.741Z,6.00
2018-06-20T21:59:37.339Z,5.20
2018-06-20T22:02:05.871Z,5.60
2018-06-20T22:04:34.398Z,5.27
2018-06-20T22:07:02.923Z,5.87
2018-06-20T22:09:31.521Z,5.70
2018-06-20T22:11:59.967Z,5.93
2018-06-20T22:14:28.516Z,5.53
2018-06-20T22:16:57.023Z,5.77
2018-06-20T22:19:25.584Z,6.80
2018-06-20T22:21:54.105Z,5.67
2018-06-20T22:24:22.617Z,6.07
2018-06-20T22:26:51.118Z,7.23
2018-06-20T22:29:19.642Z,6.10
2018-06-20T22:31:48.438Z,6.10
2018-06-20T22:34:16.962Z,6.13
2018-06-20T22:36:45.509Z,5.77
2018-06-20T22:39:14.031Z,6.23
2018-06-20T22:41:42.587Z,5.27
2018-06-20T22:44:11.099Z,6.23
2018-06-20T22:46:39.657Z,6.03
2018-06-20T22:49:08.750Z,5.40
2018-06-20T22:51:37.521Z,6.90
2018-06-20T22:54:06.052Z,6.50
2018-06-20T22:56:34.601Z,6.27
2018-06-20T22:59:06.065Z,5.77
2018-06-20T23:01:34.558Z,6.03
2018-06-20T23:04:03.089Z,6.70
2018-06-20T23:06:31.610Z,6.43
2018-06-20T23:09:00.175Z,7.07
2018-06-20T23:11:31.407Z,6.07
2018-06-20T23:13:59.914Z,6.57
2018-06-20T23:16:28.411Z,6.90
2018-06-20T23:18:56.941Z,6.27
2018-06-20T23:21:25.444Z,6.80
2018-06-20T23:23:53.935Z,6.70
2018-06-20T23:26:22.469Z,7.07
2018-06-20T23:28:51.214Z,6.50
2018-06-20T23:31:19.714Z,5.80
2018-06-20T23:33:48.239Z,6.70
2018-06-20T23:36:16.748Z,6.80
2018-06-20T23:38:45.299Z,6.70
2018-06-20T23:41:14.086Z,6.40
2018-06-20T23:43:43.111Z,6.70
2018-06-20T23:46:11.800Z,6.27
2018-06-20T23:48:40.411Z,6.83
2018-06-20T23:51:09.155Z,6.50
2018-06-20T23:53:37.786Z,8.70
2018-06-20T23:56:06.310Z,6.67
2018-06-20T23:58:34.838Z,6.80
